sensor_id;sensor_type;location;lat;lon;timestamp;pressure;altitude;pressure_sealevel;temperature;humidity
78117;BME280;69042;59.120;37.904;2023-07-29T00:02:12;99176.69;;;15.79;79.23
78117;BME280;69042;59.120;37.904;2023-07-29T00:04:38;99182.66;;;15.81;79.13
78117;BME280;69042;59.120;37.904;2023-07-29T00:07:04;99180.88;;;15.82;79.25
78117;BME280;69042;59.120;37.904;2023-07-29T00:09:30;99196.56;;;15.84;79.22
78117;BME280;69042;59.120;37.904;2023-07-29T00:11:56;99187.81;;;15.83;79.17
78117;BME280;69042;59.120;37.904;2023-07-29T00:14:22;99201.81;;;15.84;79.21
78117;BME280;69042;59.120;37.904;2023-07-29T00:16:48;99208.75;;;15.85;79.11
78117;BME280;69042;59.120;37.904;2023-07-29T00:19:15;99213.19;;;15.84;79.14
78117;BME280;69042;59.120;37.904;2023-07-29T00:21:41;99199.19;;;15.84;79.13
78117;BME280;69042;59.120;37.904;2023-07-29T00:24:07;99204.47;;;15.84;79.17
78117;BME280;69042;59.120;37.904;2023-07-29T00:26:33;99213.31;;;15.82;79.06
78117;BME280;69042;59.120;37.904;2023-07-29T00:29:00;99211.66;;;15.81;79.17
78117;BME280;69042;59.120;37.904;2023-07-29T00:31:27;99215.22;;;15.80;79.19
78117;BME280;69042;59.120;37.904;2023-07-29T00:33:53;99216.06;;;15.81;79.23
78117;BME280;69042;59.120;37.904;2023-07-29T00:36:20;99211.75;;;15.80;79.49
78117;BME280;69042;59.120;37.904;2023-07-29T00:38:46;99212.47;;;15.82;79.36
78117;BME280;69042;59.120;37.904;2023-07-29T00:41:13;99207.19;;;15.82;79.47
78117;BME280;69042;59.120;37.904;2023-07-29T00:43:41;99202.03;;;15.80;79.57
78117;BME280;69042;59.120;37.904;2023-07-29T00:46:09;99202.75;;;15.82;79.63
78117;BME280;69042;59.120;37.904;2023-07-29T00:49:01;99209.72;;;15.84;79.89
78117;BME280;69042;59.120;37.904;2023-07-29T00:51:27;99207.94;;;15.84;79.72
78117;BME280;69042;59.120;37.904;2023-07-29T00:53:56;99215.00;;;15.84;79.65
78117;BME280;69042;59.120;37.904;2023-07-29T00:56:22;99216.81;;;15.83;79.70
78117;BME280;69042;59.120;37.904;2023-07-29T00:58:48;99213.44;;;15.81;79.86
78117;BME280;69042;59.120;37.904;2023-07-29T01:01:15;99208.28;;;15.79;79.80
78117;BME280;69042;59.120;37.904;2023-07-29T01:03:41;99211.16;;;15.76;79.68
78117;BME280;69042;59.120;37.904;2023-07-29T01:06:21;99218.22;;;15.76;79.86
78117;BME280;69042;59.120;37.904;2023-07-29T01:09:03;99213.19;;;15.73;79.86
78117;BME280;69042;59.120;37.904;2023-07-29T01:11:58;99207.00;;;15.74;79.95
78117;BME280;69042;59.120;37.904;2023-07-29T01:17:33;99213.19;;;15.73;79.75
78117;BME280;69042;59.120;37.904;2023-07-29T01:20:13;99215.00;;;15.72;79.64
78117;BME280;69042;59.120;37.904;2023-07-29T01:22:40;99212.47;;;15.71;79.61
78117;BME280;69042;59.120;37.904;2023-07-29T01:25:07;99223.09;;;15.69;79.64
78117;BME280;69042;59.120;37.904;2023-07-29T01:27:34;99214.34;;;15.69;79.78
78117;BME280;69042;59.120;37.904;2023-07-29T01:30:01;99215.19;;;15.69;79.73
78117;BME280;69042;59.120;37.904;2023-07-29T01:32:40;99209.72;;;15.72;79.79
78117;BME280;69042;59.120;37.904;2023-07-29T01:37:44;99215.81;;;15.73;79.57
78117;BME280;69042;59.120;37.904;2023-07-29T01:40:13;99218.47;;;15.73;79.66
78117;BME280;69042;59.120;37.904;2023-07-29T01:42:39;99220.84;;;15.76;79.80
78117;BME280;69042;59.120;37.904;2023-07-29T01:45:06;99218.81;;;15.79;79.44
78117;BME280;69042;59.120;37.904;2023-07-29T01:47:32;99222.19;;;15.81;79.65
78117;BME280;69042;59.120;37.904;2023-07-29T01:49:58;99229.81;;;15.85;79.55
78117;BME280;69042;59.120;37.904;2023-07-29T01:52:24;99222.78;;;15.85;79.31
78117;BME280;69042;59.120;37.904;2023-07-29T01:54:50;99221.09;;;15.84;79.24
78117;BME280;69042;59.120;37.904;2023-07-29T01:57:17;99224.69;;;15.83;79.25
78117;BME280;69042;59.120;37.904;2023-07-29T01:59:43;99225.41;;;15.85;79.33
78117;BME280;69042;59.120;37.904;2023-07-29T02:02:09;99232.34;;;15.86;79.16
78117;BME280;69042;59.120;37.904;2023-07-29T02:04:36;99227.81;;;15.88;79.15
78117;BME280;69042;59.120;37.904;2023-07-29T02:07:02;99230.44;;;15.88;79.10
78117;BME280;69042;59.120;37.904;2023-07-29T02:09:29;99235.72;;;15.88;79.08
78117;BME280;69042;59.120;37.904;2023-07-29T02:11:56;99236.78;;;15.86;79.01
78117;BME280;69042;59.120;37.904;2023-07-29T02:14:23;99230.69;;;15.85;78.83
78117;BME280;69042;59.120;37.904;2023-07-29T02:16:49;99224.56;;;15.85;78.90
78117;BME280;69042;59.120;37.904;2023-07-29T02:19:16;99214.03;;;15.85;78.92
78117;BME280;69042;59.120;37.904;2023-07-29T02:21:42;99213.19;;;15.84;78.95
78117;BME280;69042;59.120;37.904;2023-07-29T02:24:08;99219.78;;;15.90;78.97
78117;BME280;69042;59.120;37.904;2023-07-29T02:26:34;99223.84;;;15.94;78.94
78117;BME280;69042;59.120;37.904;2023-07-29T02:29:01;99222.66;;;15.98;79.17
78117;BME280;69042;59.120;37.904;2023-07-29T02:31:27;99214.38;;;16.02;79.00
78117;BME280;69042;59.120;37.904;2023-07-29T02:33:53;99219.06;;;16.10;78.88
78117;BME280;69042;59.120;37.904;2023-07-29T02:36:20;99222.88;;;16.17;78.67
78117;BME280;69042;59.120;37.904;2023-07-29T02:38:46;99221.53;;;16.23;78.55
78117;BME280;69042;59.120;37.904;2023-07-29T02:41:13;99236.03;;;16.29;78.57
78117;BME280;69042;59.120;37.904;2023-07-29T02:43:42;99243.56;;;16.33;78.18
78117;BME280;69042;59.120;37.904;2023-07-29T02:46:09;99238.75;;;16.38;77.96
78117;BME280;69042;59.120;37.904;2023-07-29T02:48:35;99237.56;;;16.42;78.13
78117;BME280;69042;59.120;37.904;2023-07-29T02:51:01;99244.84;;;16.50;77.85
78117;BME280;69042;59.120;37.904;2023-07-29T02:53:27;99246.16;;;16.56;77.90
78117;BME280;69042;59.120;37.904;2023-07-29T02:55:53;99253.81;;;16.59;77.33
78117;BME280;69042;59.120;37.904;2023-07-29T02:58:20;99261.50;;;16.62;77.27
78117;BME280;69042;59.120;37.904;2023-07-29T03:00:46;99260.41;;;16.64;77.49
78117;BME280;69042;59.120;37.904;2023-07-29T03:03:14;99273.44;;;16.66;77.28
78117;BME280;69042;59.120;37.904;2023-07-29T03:05:40;99276.81;;;16.68;77.25
78117;BME280;69042;59.120;37.904;2023-07-29T03:08:06;99282.81;;;16.70;77.32
78117;BME280;69042;59.120;37.904;2023-07-29T03:10:35;99278.38;;;16.71;77.36
78117;BME280;69042;59.120;37.904;2023-07-29T03:13:01;99284.34;;;16.73;77.19
78117;BME280;69042;59.120;37.904;2023-07-29T03:15:27;99289.50;;;16.74;76.81
78117;BME280;69042;59.120;37.904;2023-07-29T03:17:53;99285.94;;;16.75;76.93
78117;BME280;69042;59.120;37.904;2023-07-29T03:20:20;99291.06;;;16.77;76.79
78117;BME280;69042;59.120;37.904;2023-07-29T03:22:46;99289.06;;;16.80;76.96
78117;BME280;69042;59.120;37.904;2023-07-29T03:25:13;99280.88;;;16.83;77.00
78117;BME280;69042;59.120;37.904;2023-07-29T03:27:39;99273.28;;;16.90;76.66
78117;BME280;69042;59.120;37.904;2023-07-29T03:30:06;99269.19;;;16.97;76.69
78117;BME280;69042;59.120;37.904;2023-07-29T03:32:33;99264.50;;;17.01;76.27
78117;BME280;69042;59.120;37.904;2023-07-29T03:34:59;99252.34;;;17.10;76.67
78117;BME280;69042;59.120;37.904;2023-07-29T03:37:25;99252.41;;;17.19;76.55
78117;BME280;69042;59.120;37.904;2023-07-29T03:39:52;99249.00;;;17.28;76.16
78117;BME280;69042;59.120;37.904;2023-07-29T03:42:18;99254.63;;;17.35;75.72
78117;BME280;69042;59.120;37.904;2023-07-29T03:44:44;99267.19;;;17.43;75.67
78117;BME280;69042;59.120;37.904;2023-07-29T03:47:10;99276.69;;;17.55;75.91
78117;BME280;69042;59.120;37.904;2023-07-29T03:49:38;99272.34;;;17.65;75.66
78117;BME280;69042;59.120;37.904;2023-07-29T03:52:06;99273.47;;;17.73;75.19
78117;BME280;69042;59.120;37.904;2023-07-29T03:54:32;99275.59;;;17.79;75.31
78117;BME280;69042;59.120;37.904;2023-07-29T03:56:58;99276.06;;;17.84;74.98
78117;BME280;69042;59.120;37.904;2023-07-29T03:59:25;99272.75;;;17.92;74.90
78117;BME280;69042;59.120;37.904;2023-07-29T04:01:51;99281.69;;;18.00;74.85
78117;BME280;69042;59.120;37.904;2023-07-29T04:04:17;99276.72;;;18.07;74.69
78117;BME280;69042;59.120;37.904;2023-07-29T04:06:43;99281.34;;;18.15;74.65
78117;BME280;69042;59.120;37.904;2023-07-29T04:09:09;99283.44;;;18.21;74.37
78117;BME280;69042;59.120;37.904;2023-07-29T04:11:35;99282.34;;;18.23;74.51
78117;BME280;69042;59.120;37.904;2023-07-29T04:14:02;99295.84;;;18.20;74.00
78117;BME280;69042;59.120;37.904;2023-07-29T04:16:28;99292.88;;;18.14;73.46
78117;BME280;69042;59.120;37.904;2023-07-29T04:18:54;99303.28;;;18.05;73.55
78117;BME280;69042;59.120;37.904;2023-07-29T04:21:20;99295.63;;;18.02;73.90
78117;BME280;69042;59.120;37.904;2023-07-29T04:23:47;99282.69;;;17.99;73.79
78117;BME280;69042;59.120;37.904;2023-07-29T04:26:13;99277.25;;;18.01;74.09
78117;BME280;69042;59.120;37.904;2023-07-29T04:28:39;99282.59;;;18.10;74.46
78117;BME280;69042;59.120;37.904;2023-07-29T04:31:05;99283.44;;;18.21;74.55
78117;BME280;69042;59.120;37.904;2023-07-29T04:33:32;99284.59;;;18.28;74.29
78117;BME280;69042;59.120;37.904;2023-07-29T04:35:58;99278.63;;;18.36;74.32
78117;BME280;69042;59.120;37.904;2023-07-29T04:38:30;99282.28;;;18.44;73.95
78117;BME280;69042;59.120;37.904;2023-07-29T04:40:56;99272.00;;;18.51;73.54
78117;BME280;69042;59.120;37.904;2023-07-29T04:43:22;99266.44;;;18.54;73.25
78117;BME280;69042;59.120;37.904;2023-07-29T04:45:52;99261.41;;;18.51;73.06
78117;BME280;69042;59.120;37.904;2023-07-29T04:48:19;99261.13;;;18.44;73.07
78117;BME280;69042;59.120;37.904;2023-07-29T04:50:45;99249.13;;;18.40;72.82
78117;BME280;69042;59.120;37.904;2023-07-29T04:53:11;99257.19;;;18.39;72.88
78117;BME280;69042;59.120;37.904;2023-07-29T04:55:37;99252.91;;;18.38;73.06
78117;BME280;69042;59.120;37.904;2023-07-29T04:58:03;99258.44;;;18.35;73.12
78117;BME280;69042;59.120;37.904;2023-07-29T05:00:29;99253.31;;;18.33;73.12
78117;BME280;69042;59.120;37.904;2023-07-29T05:02:55;99260.25;;;18.34;73.17
78117;BME280;69042;59.120;37.904;2023-07-29T05:05:22;99253.44;;;18.31;73.36
78117;BME280;69042;59.120;37.904;2023-07-29T05:07:48;99253.72;;;18.28;73.24
78117;BME280;69042;59.120;37.904;2023-07-29T05:10:14;99261.78;;;18.27;73.63
78117;BME280;69042;59.120;37.904;2023-07-29T05:12:41;99256.59;;;18.25;73.61
78117;BME280;69042;59.120;37.904;2023-07-29T05:15:07;99251.19;;;18.27;73.65
78117;BME280;69042;59.120;37.904;2023-07-29T05:17:34;99242.03;;;18.31;73.65
78117;BME280;69042;59.120;37.904;2023-07-29T05:20:00;99239.94;;;18.35;73.86
78117;BME280;69042;59.120;37.904;2023-07-29T05:22:26;99234.22;;;18.39;73.94
78117;BME280;69042;59.120;37.904;2023-07-29T05:24:52;99231.03;;;18.45;73.36
78117;BME280;69042;59.120;37.904;2023-07-29T05:27:18;99229.38;;;18.54;73.97
78117;BME280;69042;59.120;37.904;2023-07-29T05:29:45;99233.84;;;18.63;73.57
78117;BME280;69042;59.120;37.904;2023-07-29T05:32:11;99230.25;;;18.74;73.87
78117;BME280;69042;59.120;37.904;2023-07-29T05:34:37;99226.81;;;18.83;73.70
78117;BME280;69042;59.120;37.904;2023-07-29T05:37:03;99235.00;;;19.00;73.45
78117;BME280;69042;59.120;37.904;2023-07-29T05:39:29;99232.50;;;19.18;73.53
78117;BME280;69042;59.120;37.904;2023-07-29T05:41:58;99229.00;;;19.37;72.99
78117;BME280;69042;59.120;37.904;2023-07-29T05:44:24;99225.59;;;19.54;72.83
78117;BME280;69042;59.120;37.904;2023-07-29T05:46:50;99229.34;;;19.71;72.48
78117;BME280;69042;59.120;37.904;2023-07-29T05:49:17;99225.38;;;19.85;71.91
78117;BME280;69042;59.120;37.904;2023-07-29T05:51:43;99226.19;;;19.95;71.69
78117;BME280;69042;59.120;37.904;2023-07-29T05:54:09;99228.66;;;20.06;70.92
78117;BME280;69042;59.120;37.904;2023-07-29T05:56:35;99229.56;;;20.15;70.77
78117;BME280;69042;59.120;37.904;2023-07-29T05:59:01;99227.16;;;20.22;70.44
78117;BME280;69042;59.120;37.904;2023-07-29T06:01:28;99231.03;;;20.27;70.22
78117;BME280;69042;59.120;37.904;2023-07-29T06:03:54;99220.66;;;20.34;69.82
78117;BME280;69042;59.120;37.904;2023-07-29T06:06:21;99228.88;;;20.41;69.68
78117;BME280;69042;59.120;37.904;2023-07-29T06:08:50;99218.63;;;20.46;69.53
78117;BME280;69042;59.120;37.904;2023-07-29T06:11:16;99218.88;;;20.52;68.91
78117;BME280;69042;59.120;37.904;2023-07-29T06:13:42;99208.53;;;20.59;68.63
78117;BME280;69042;59.120;37.904;2023-07-29T06:16:08;99208.91;;;20.64;68.31
78117;BME280;69042;59.120;37.904;2023-07-29T06:18:36;99205.50;;;20.72;68.02
78117;BME280;69042;59.120;37.904;2023-07-29T06:21:02;99210.72;;;20.82;67.73
78117;BME280;69042;59.120;37.904;2023-07-29T06:23:34;99218.91;;;20.88;66.97
78117;BME280;69042;59.120;37.904;2023-07-29T06:26:00;99211.84;;;20.97;67.03
78117;BME280;69042;59.120;37.904;2023-07-29T06:28:29;99204.78;;;21.06;66.64
78117;BME280;69042;59.120;37.904;2023-07-29T06:30:55;99212.66;;;21.15;66.62
78117;BME280;69042;59.120;37.904;2023-07-29T06:33:21;99213.69;;;21.23;66.28
78117;BME280;69042;59.120;37.904;2023-07-29T06:35:47;99212.09;;;21.30;66.15
78117;BME280;69042;59.120;37.904;2023-07-29T06:38:13;99210.66;;;21.35;66.04
78117;BME280;69042;59.120;37.904;2023-07-29T06:40:40;99215.13;;;21.35;65.72
78117;BME280;69042;59.120;37.904;2023-07-29T06:43:06;99217.94;;;21.33;65.69
78117;BME280;69042;59.120;37.904;2023-07-29T06:45:33;99216.44;;;21.31;65.73
78117;BME280;69042;59.120;37.904;2023-07-29T06:47:59;99218.41;;;21.29;65.45
78117;BME280;69042;59.120;37.904;2023-07-29T06:50:25;99221.22;;;21.27;65.38
78117;BME280;69042;59.120;37.904;2023-07-29T06:52:51;99220.38;;;21.27;65.60
78117;BME280;69042;59.120;37.904;2023-07-29T06:55:17;99217.25;;;21.31;65.76
78117;BME280;69042;59.120;37.904;2023-07-29T06:57:43;99224.63;;;21.37;65.57
78117;BME280;69042;59.120;37.904;2023-07-29T07:00:10;99222.34;;;21.42;65.13
78117;BME280;69042;59.120;37.904;2023-07-29T07:02:36;99225.34;;;21.48;65.16
78117;BME280;69042;59.120;37.904;2023-07-29T07:05:02;99219.97;;;21.57;64.86
78117;BME280;69042;59.120;37.904;2023-07-29T07:07:28;99225.16;;;21.67;64.54
78117;BME280;69042;59.120;37.904;2023-07-29T07:09:54;99213.91;;;21.73;64.62
78117;BME280;69042;59.120;37.904;2023-07-29T07:12:20;99221.22;;;21.79;64.32
78117;BME280;69042;59.120;37.904;2023-07-29T07:14:47;99225.63;;;21.89;63.84
78117;BME280;69042;59.120;37.904;2023-07-29T07:17:13;99224.94;;;21.95;63.63
78117;BME280;69042;59.120;37.904;2023-07-29T07:19:39;99242.47;;;22.06;63.38
78117;BME280;69042;59.120;37.904;2023-07-29T07:22:06;99247.66;;;22.15;62.64
78117;BME280;69042;59.120;37.904;2023-07-29T07:24:32;99251.22;;;22.24;62.46
78117;BME280;69042;59.120;37.904;2023-07-29T07:26:58;99250.75;;;22.37;62.35
78117;BME280;69042;59.120;37.904;2023-07-29T07:29:24;99259.78;;;22.44;61.54
78117;BME280;69042;59.120;37.904;2023-07-29T07:31:52;99272.44;;;22.50;61.17
78117;BME280;69042;59.120;37.904;2023-07-29T07:34:18;99263.31;;;22.61;61.94
78117;BME280;69042;59.120;37.904;2023-07-29T07:36:45;99272.50;;;22.75;61.18
78117;BME280;69042;59.120;37.904;2023-07-29T07:39:11;99274.53;;;22.81;60.01
78117;BME280;69042;59.120;37.904;2023-07-29T07:41:37;99281.00;;;22.86;58.90
78117;BME280;69042;59.120;37.904;2023-07-29T07:44:03;99283.03;;;22.93;58.12
78117;BME280;69042;59.120;37.904;2023-07-29T07:46:30;99287.22;;;23.03;57.91
78117;BME280;69042;59.120;37.904;2023-07-29T07:48:56;99291.22;;;23.16;57.71
78117;BME280;69042;59.120;37.904;2023-07-29T07:51:22;99294.38;;;23.27;57.78
78117;BME280;69042;59.120;37.904;2023-07-29T07:53:48;99303.06;;;23.38;57.26
78117;BME280;69042;59.120;37.904;2023-07-29T07:56:14;99304.22;;;23.43;57.31
78117;BME280;69042;59.120;37.904;2023-07-29T07:58:41;99298.38;;;23.48;56.62
78117;BME280;69042;59.120;37.904;2023-07-29T08:01:08;99288.56;;;23.48;56.23
78117;BME280;69042;59.120;37.904;2023-07-29T08:03:35;99289.22;;;23.51;56.47
78117;BME280;69042;59.120;37.904;2023-07-29T08:06:02;99281.88;;;23.61;55.82
78117;BME280;69042;59.120;37.904;2023-07-29T08:08:28;99279.22;;;23.69;55.52
78117;BME280;69042;59.120;37.904;2023-07-29T08:10:56;99274.19;;;23.66;55.10
78117;BME280;69042;59.120;37.904;2023-07-29T08:13:23;99260.69;;;23.59;54.69
78117;BME280;69042;59.120;37.904;2023-07-29T08:15:51;99261.22;;;23.55;55.08
78117;BME280;69042;59.120;37.904;2023-07-29T08:18:18;99247.22;;;23.53;55.32
78117;BME280;69042;59.120;37.904;2023-07-29T08:20:56;99235.06;;;23.50;55.25
78117;BME280;69042;59.120;37.904;2023-07-29T08:23:26;99232.91;;;23.45;55.52
78117;BME280;69042;59.120;37.904;2023-07-29T08:25:57;99229.91;;;23.40;55.57
78117;BME280;69042;59.120;37.904;2023-07-29T08:28:32;99219.44;;;23.31;56.49
78117;BME280;69042;59.120;37.904;2023-07-29T08:30:59;99221.75;;;23.25;56.29
78117;BME280;69042;59.120;37.904;2023-07-29T08:33:25;99219.28;;;23.24;57.27
78117;BME280;69042;59.120;37.904;2023-07-29T08:35:51;99212.59;;;23.28;57.04
78117;BME280;69042;59.120;37.904;2023-07-29T08:38:18;99206.06;;;23.39;57.24
78117;BME280;69042;59.120;37.904;2023-07-29T08:43:22;99203.88;;;23.59;56.73
78117;BME280;69042;59.120;37.904;2023-07-29T08:45:50;99200.53;;;23.57;56.86
78117;BME280;69042;59.120;37.904;2023-07-29T08:48:19;99203.56;;;23.54;56.78
78117;BME280;69042;59.120;37.904;2023-07-29T08:50:48;99204.91;;;23.49;56.38
78117;BME280;69042;59.120;37.904;2023-07-29T08:53:16;99209.22;;;23.51;56.40
78117;BME280;69042;59.120;37.904;2023-07-29T08:55:43;99204.53;;;23.53;55.61
78117;BME280;69042;59.120;37.904;2023-07-29T08:58:10;99193.56;;;23.47;55.03
78117;BME280;69042;59.120;37.904;2023-07-29T09:00:37;99203.56;;;23.45;54.82
78117;BME280;69042;59.120;37.904;2023-07-29T09:03:03;99206.59;;;23.42;55.21
78117;BME280;69042;59.120;37.904;2023-07-29T09:05:33;99212.91;;;23.41;55.30
78117;BME280;69042;59.120;37.904;2023-07-29T09:08:02;99214.75;;;23.41;55.31
78117;BME280;69042;59.120;37.904;2023-07-29T09:10:28;99223.09;;;23.38;54.62
78117;BME280;69042;59.120;37.904;2023-07-29T09:12:55;99228.06;;;23.33;54.30
78117;BME280;69042;59.120;37.904;2023-07-29T09:15:31;99226.41;;;23.32;54.06
78117;BME280;69042;59.120;37.904;2023-07-29T09:17:58;99221.75;;;23.34;53.99
78117;BME280;69042;59.120;37.904;2023-07-29T09:20:26;99222.59;;;23.34;53.75
78117;BME280;69042;59.120;37.904;2023-07-29T09:22:58;99218.25;;;23.33;53.75
78117;BME280;69042;59.120;37.904;2023-07-29T09:25:26;99221.41;;;23.37;53.90
78117;BME280;69042;59.120;37.904;2023-07-29T09:27:59;99228.41;;;23.38;53.63
78117;BME280;69042;59.120;37.904;2023-07-29T09:30:26;99232.56;;;23.40;52.73
78117;BME280;69042;59.120;37.904;2023-07-29T09:32:56;99220.41;;;23.38;52.44
78117;BME280;69042;59.120;37.904;2023-07-29T09:35:24;99216.25;;;23.27;51.75
78117;BME280;69042;59.120;37.904;2023-07-29T09:37:51;99220.91;;;23.17;51.50
78117;BME280;69042;59.120;37.904;2023-07-29T09:40:18;99228.44;;;23.05;51.86
78117;BME280;69042;59.120;37.904;2023-07-29T09:42:51;99225.09;;;22.95;51.62
78117;BME280;69042;59.120;37.904;2023-07-29T09:45:21;99230.41;;;22.86;51.72
78117;BME280;69042;59.120;37.904;2023-07-29T09:47:48;99232.06;;;22.79;51.44
78117;BME280;69042;59.120;37.904;2023-07-29T09:50:14;99231.56;;;22.68;52.00
78117;BME280;69042;59.120;37.904;2023-07-29T09:52:41;99225.38;;;22.59;52.06
78117;BME280;69042;59.120;37.904;2023-07-29T09:55:08;99227.34;;;22.49;52.46
78117;BME280;69042;59.120;37.904;2023-07-29T09:57:35;99229.63;;;22.35;53.01
78117;BME280;69042;59.120;37.904;2023-07-29T10:00:02;99230.75;;;22.24;54.06
78117;BME280;69042;59.120;37.904;2023-07-29T10:02:31;99226.53;;;22.14;54.11
78117;BME280;69042;59.120;37.904;2023-07-29T10:04:58;99228.00;;;22.08;54.59
78117;BME280;69042;59.120;37.904;2023-07-29T10:07:25;99229.84;;;22.08;55.18
78117;BME280;69042;59.120;37.904;2023-07-29T10:09:52;99226.50;;;22.06;55.66
78117;BME280;69042;59.120;37.904;2023-07-29T10:12:19;99235.31;;;22.06;56.09
78117;BME280;69042;59.120;37.904;2023-07-29T10:14:47;99230.00;;;22.06;56.43
78117;BME280;69042;59.120;37.904;2023-07-29T10:17:15;99231.97;;;22.04;56.71
78117;BME280;69042;59.120;37.904;2023-07-29T10:19:43;99226.84;;;22.02;57.07
78117;BME280;69042;59.120;37.904;2023-07-29T10:22:11;99228.34;;;22.05;57.51
78117;BME280;69042;59.120;37.904;2023-07-29T10:24:41;99221.19;;;22.06;57.34
78117;BME280;69042;59.120;37.904;2023-07-29T10:27:11;99220.00;;;22.00;57.15
78117;BME280;69042;59.120;37.904;2023-07-29T10:29:39;99217.50;;;21.98;57.35
78117;BME280;69042;59.120;37.904;2023-07-29T10:32:10;99209.00;;;21.95;57.19
78117;BME280;69042;59.120;37.904;2023-07-29T10:34:37;99199.66;;;21.91;57.22
78117;BME280;69042;59.120;37.904;2023-07-29T10:37:04;99198.50;;;21.85;57.38
78117;BME280;69042;59.120;37.904;2023-07-29T10:39:38;99193.81;;;21.79;57.35
78117;BME280;69042;59.120;37.904;2023-07-29T10:42:06;99188.47;;;21.71;56.88
78117;BME280;69042;59.120;37.904;2023-07-29T10:47:22;99187.69;;;21.52;57.28
78117;BME280;69042;59.120;37.904;2023-07-29T10:49:54;99193.00;;;21.52;57.45
78117;BME280;69042;59.120;37.904;2023-07-29T10:55:03;99181.25;;;21.55;57.21
78117;BME280;69042;59.120;37.904;2023-07-29T10:57:39;99168.91;;;21.54;57.29
78117;BME280;69042;59.120;37.904;2023-07-29T11:00:07;99166.59;;;21.51;57.10
78117;BME280;69042;59.120;37.904;2023-07-29T11:02:38;99164.91;;;21.50;57.21
78117;BME280;69042;59.120;37.904;2023-07-29T11:05:15;99178.88;;;21.52;57.56
78117;BME280;69042;59.120;37.904;2023-07-29T11:07:46;99175.59;;;21.58;57.74
78117;BME280;69042;59.120;37.904;2023-07-29T11:10:13;99168.16;;;21.70;57.50
78117;BME280;69042;59.120;37.904;2023-07-29T11:12:50;99176.34;;;21.76;57.60
78117;BME280;69042;59.120;37.904;2023-07-29T11:15:23;99174.56;;;21.85;57.90
78117;BME280;69042;59.120;37.904;2023-07-29T11:17:55;99179.06;;;21.93;58.18
78117;BME280;69042;59.120;37.904;2023-07-29T11:20:24;99186.75;;;22.04;57.62
78117;BME280;69042;59.120;37.904;2023-07-29T11:22:52;99175.81;;;22.07;57.03
78117;BME280;69042;59.120;37.904;2023-07-29T11:25:18;99196.09;;;22.08;56.78
78117;BME280;69042;59.120;37.904;2023-07-29T11:27:46;99201.25;;;22.10;57.00
78117;BME280;69042;59.120;37.904;2023-07-29T11:30:13;99209.09;;;22.19;57.23
78117;BME280;69042;59.120;37.904;2023-07-29T11:32:41;99200.00;;;22.30;56.91
78117;BME280;69042;59.120;37.904;2023-07-29T11:35:15;99191.88;;;22.40;56.88
78117;BME280;69042;59.120;37.904;2023-07-29T11:37:43;99199.22;;;22.46;56.56
78117;BME280;69042;59.120;37.904;2023-07-29T11:40:14;99205.06;;;22.50;56.72
78117;BME280;69042;59.120;37.904;2023-07-29T11:42:41;99205.06;;;22.50;56.38
78117;BME280;69042;59.120;37.904;2023-07-29T11:45:07;99196.41;;;22.48;55.60
78117;BME280;69042;59.120;37.904;2023-07-29T11:47:34;99212.00;;;22.42;54.97
78117;BME280;69042;59.120;37.904;2023-07-29T11:50:04;99207.16;;;22.30;54.08
78117;BME280;69042;59.120;37.904;2023-07-29T11:52:32;99216.88;;;22.13;53.79
78117;BME280;69042;59.120;37.904;2023-07-29T11:55:00;99215.19;;;22.03;53.79
78117;BME280;69042;59.120;37.904;2023-07-29T11:57:36;99224.13;;;21.94;53.20
78117;BME280;69042;59.120;37.904;2023-07-29T12:00:04;99225.22;;;21.83;53.34
78117;BME280;69042;59.120;37.904;2023-07-29T12:02:36;99215.41;;;21.76;53.62
78117;BME280;69042;59.120;37.904;2023-07-29T12:05:04;99216.19;;;21.68;54.06
78117;BME280;69042;59.120;37.904;2023-07-29T12:07:31;99217.13;;;21.59;53.85
78117;BME280;69042;59.120;37.904;2023-07-29T12:09:59;99216.75;;;21.54;53.55
78117;BME280;69042;59.120;37.904;2023-07-29T12:12:26;99212.75;;;21.50;53.69
78117;BME280;69042;59.120;37.904;2023-07-29T12:14:54;99208.25;;;21.50;53.93
78117;BME280;69042;59.120;37.904;2023-07-29T12:17:20;99207.44;;;21.50;53.71
78117;BME280;69042;59.120;37.904;2023-07-29T12:19:47;99211.91;;;21.49;53.44
78117;BME280;69042;59.120;37.904;2023-07-29T12:22:18;99205.09;;;21.47;53.58
78117;BME280;69042;59.120;37.904;2023-07-29T12:24:44;99203.41;;;21.46;53.71
78117;BME280;69042;59.120;37.904;2023-07-29T12:27:12;99203.75;;;21.42;53.93
78117;BME280;69042;59.120;37.904;2023-07-29T12:29:43;99212.06;;;21.48;53.64
78117;BME280;69042;59.120;37.904;2023-07-29T12:32:10;99218.25;;;21.48;53.62
78117;BME280;69042;59.120;37.904;2023-07-29T12:34:38;99203.81;;;21.51;53.37
78117;BME280;69042;59.120;37.904;2023-07-29T12:37:06;99197.94;;;21.47;53.45
78117;BME280;69042;59.120;37.904;2023-07-29T12:39:34;99193.69;;;21.36;53.10
78117;BME280;69042;59.120;37.904;2023-07-29T12:42:02;99186.97;;;21.24;53.22
78117;BME280;69042;59.120;37.904;2023-07-29T12:44:36;99187.44;;;21.19;53.44
78117;BME280;69042;59.120;37.904;2023-07-29T12:47:05;99193.06;;;21.16;53.34
78117;BME280;69042;59.120;37.904;2023-07-29T12:49:32;99193.22;;;21.15;53.35
78117;BME280;69042;59.120;37.904;2023-07-29T12:51:59;99196.03;;;21.13;53.58
78117;BME280;69042;59.120;37.904;2023-07-29T12:54:26;99197.72;;;21.14;53.66
78117;BME280;69042;59.120;37.904;2023-07-29T12:56:52;99190.94;;;21.20;53.70
78117;BME280;69042;59.120;37.904;2023-07-29T12:59:18;99198.28;;;21.26;53.88
78117;BME280;69042;59.120;37.904;2023-07-29T13:01:45;99188.03;;;21.31;53.38
78117;BME280;69042;59.120;37.904;2023-07-29T13:04:11;99192.88;;;21.36;53.09
78117;BME280;69042;59.120;37.904;2023-07-29T13:06:38;99191.22;;;21.35;52.66